sensor_id;sensor_type;location;lat;lon;timestamp;pressure;altitude;pressure_sealevel;temperature;humidity
7668;BME280;3876;42.204;24.686;2023-02-19T00:02:09;99614.78;;;10.68;59.33
7668;BME280;3876;42.204;24.686;2023-02-19T00:04:37;99612.16;;;10.70;59.03
7668;BME280;3876;42.204;24.686;2023-02-19T00:07:04;99617.19;;;10.74;58.63
7668;BME280;3876;42.204;24.686;2023-02-19T00:09:31;99607.72;;;10.76;58.99
7668;BME280;3876;42.204;24.686;2023-02-19T00:11:58;99612.75;;;10.79;58.84
7668;BME280;3876;42.204;24.686;2023-02-19T00:14:24;99609.31;;;10.80;58.93
7668;BME280;3876;42.204;24.686;2023-02-19T00:16:51;99588.22;;;10.71;58.88
7668;BME280;3876;42.204;24.686;2023-02-19T00:19:19;99596.47;;;10.82;58.55
7668;BME280;3876;42.204;24.686;2023-02-19T00:21:50;99599.81;;;10.84;58.51
7668;BME280;3876;42.204;24.686;2023-02-19T00:24:17;99594.59;;;10.87;58.42
7668;BME280;3876;42.204;24.686;2023-02-19T00:26:45;99591.06;;;10.91;58.59
7668;BME280;3876;42.204;24.686;2023-02-19T00:29:14;99585.94;;;10.91;58.09
7668;BME280;3876;42.204;24.686;2023-02-19T00:31:41;99594.34;;;10.96;58.21
7668;BME280;3876;42.204;24.686;2023-02-19T00:34:09;99593.44;;;10.98;57.87
7668;BME280;3876;42.204;24.686;2023-02-19T00:36:37;99570.47;;;10.94;57.72
7668;BME280;3876;42.204;24.686;2023-02-19T00:39:07;99556.22;;;10.84;57.89
7668;BME280;3876;42.204;24.686;2023-02-19T00:41:34;99564.38;;;10.98;57.74
7668;BME280;3876;42.204;24.686;2023-02-19T00:44:03;99573.72;;;10.99;58.05
7668;BME280;3876;42.204;24.686;2023-02-19T00:46:32;99548.53;;;10.84;57.76
7668;BME280;3876;42.204;24.686;2023-02-19T00:48:59;99561.00;;;10.96;57.87
7668;BME280;3876;42.204;24.686;2023-02-19T00:51:28;99565.25;;;10.97;57.68
7668;BME280;3876;42.204;24.686;2023-02-19T00:53:56;99563.56;;;10.96;57.64
7668;BME280;3876;42.204;24.686;2023-02-19T00:56:24;99551.78;;;10.89;58.08
7668;BME280;3876;42.204;24.686;2023-02-19T00:58:51;99558.66;;;10.88;57.88
7668;BME280;3876;42.204;24.686;2023-02-19T01:01:18;99556.91;;;10.89;57.80
7668;BME280;3876;42.204;24.686;2023-02-19T01:03:46;99557.00;;;10.86;57.98
7668;BME280;3876;42.204;24.686;2023-02-19T01:06:16;99533.34;;;10.76;57.97
7668;BME280;3876;42.204;24.686;2023-02-19T01:08:44;99544.19;;;10.86;58.13
7668;BME280;3876;42.204;24.686;2023-02-19T01:11:11;99540.94;;;10.81;58.88
7668;BME280;3876;42.204;24.686;2023-02-19T01:13:40;99524.19;;;10.69;58.89
7668;BME280;3876;42.204;24.686;2023-02-19T01:16:09;99542.81;;;10.74;59.40
7668;BME280;3876;42.204;24.686;2023-02-19T01:18:37;99545.59;;;10.67;59.14
7668;BME280;3876;42.204;24.686;2023-02-19T01:21:05;99546.41;;;10.69;59.13
7668;BME280;3876;42.204;24.686;2023-02-19T01:23:32;99542.25;;;10.65;59.44
7668;BME280;3876;42.204;24.686;2023-02-19T01:26:03;99548.16;;;10.67;59.47
7668;BME280;3876;42.204;24.686;2023-02-19T01:28:30;99542.16;;;10.68;59.17
7668;BME280;3876;42.204;24.686;2023-02-19T01:31:01;99543.88;;;10.67;59.18
7668;BME280;3876;42.204;24.686;2023-02-19T01:33:28;99530.31;;;10.64;59.54
7668;BME280;3876;42.204;24.686;2023-02-19T01:35:55;99536.38;;;10.61;59.35
7668;BME280;3876;42.204;24.686;2023-02-19T01:38:22;99518.84;;;10.46;59.72
7668;BME280;3876;42.204;24.686;2023-02-19T01:40:53;99527.16;;;10.54;59.58
7668;BME280;3876;42.204;24.686;2023-02-19T01:43:20;99506.97;;;10.43;59.83
7668;BME280;3876;42.204;24.686;2023-02-19T01:45:47;99529.06;;;10.47;60.52
7668;BME280;3876;42.204;24.686;2023-02-19T01:48:17;99518.00;;;10.45;60.43
7668;BME280;3876;42.204;24.686;2023-02-19T01:50:48;99492.72;;;10.33;61.58
7668;BME280;3876;42.204;24.686;2023-02-19T01:53:19;99514.03;;;10.35;61.68
7668;BME280;3876;42.204;24.686;2023-02-19T01:55:50;99505.72;;;10.27;61.95
7668;BME280;3876;42.204;24.686;2023-02-19T01:58:19;99519.41;;;10.26;62.13
7668;BME280;3876;42.204;24.686;2023-02-19T02:00:46;99517.72;;;10.25;62.20
7668;BME280;3876;42.204;24.686;2023-02-19T02:03:14;99519.41;;;10.26;62.17
7668;BME280;3876;42.204;24.686;2023-02-19T02:05:46;99527.78;;;10.31;61.27
7668;BME280;3876;42.204;24.686;2023-02-19T02:08:16;99526.03;;;10.33;61.29
7668;BME280;3876;42.204;24.686;2023-02-19T02:11:01;99526.94;;;10.31;61.55
7668;BME280;3876;42.204;24.686;2023-02-19T02:13:28;99528.78;;;10.27;62.64
7668;BME280;3876;42.204;24.686;2023-02-19T02:16:04;99520.28;;;10.25;63.66
7668;BME280;3876;42.204;24.686;2023-02-19T02:18:41;99529.91;;;10.17;63.82
7668;BME280;3876;42.204;24.686;2023-02-19T02:21:44;99523.97;;;10.15;63.57
7668;BME280;3876;42.204;24.686;2023-02-19T02:24:31;99532.53;;;10.14;64.15
7668;BME280;3876;42.204;24.686;2023-02-19T02:30:13;99534.50;;;10.03;64.24
7668;BME280;3876;42.204;24.686;2023-02-19T02:32:48;99542.34;;;9.97;64.01
7668;BME280;3876;42.204;24.686;2023-02-19T02:35:19;99538.09;;;9.96;63.97
7668;BME280;3876;42.204;24.686;2023-02-19T02:37:48;99548.38;;;9.94;64.22
7668;BME280;3876;42.204;24.686;2023-02-19T02:40:16;99527.38;;;9.82;64.38
7668;BME280;3876;42.204;24.686;2023-02-19T02:42:44;99532.41;;;9.85;64.27
7668;BME280;3876;42.204;24.686;2023-02-19T02:45:27;99536.53;;;9.90;63.88
7668;BME280;3876;42.204;24.686;2023-02-19T02:48:26;99533.91;;;9.92;64.27
7668;BME280;3876;42.204;24.686;2023-02-19T02:50:59;99526.13;;;9.96;63.45
7668;BME280;3876;42.204;24.686;2023-02-19T02:53:31;99547.97;;;10.11;63.19
7668;BME280;3876;42.204;24.686;2023-02-19T02:56:17;99559.00;;;10.13;63.22
7668;BME280;3876;42.204;24.686;2023-02-19T02:58:45;99550.47;;;10.14;62.66
7668;BME280;3876;42.204;24.686;2023-02-19T03:01:18;99557.31;;;10.12;62.86
7668;BME280;3876;42.204;24.686;2023-02-19T03:04:08;99552.91;;;10.19;62.76
7668;BME280;3876;42.204;24.686;2023-02-19T03:06:37;99550.53;;;10.11;62.41
7668;BME280;3876;42.204;24.686;2023-02-19T03:09:09;99553.88;;;10.13;62.91
7668;BME280;3876;42.204;24.686;2023-02-19T03:11:39;99559.09;;;10.10;63.01
7668;BME280;3876;42.204;24.686;2023-02-19T03:14:29;99564.38;;;10.04;62.71
7668;BME280;3876;42.204;24.686;2023-02-19T03:17:19;99574.69;;;10.01;63.21
7668;BME280;3876;42.204;24.686;2023-02-19T03:20:09;99579.75;;;10.02;62.95
7668;BME280;3876;42.204;24.686;2023-02-19T03:22:40;99594.25;;;10.03;63.31
7668;BME280;3876;42.204;24.686;2023-02-19T03:25:10;99595.13;;;10.02;62.93
7668;BME280;3876;42.204;24.686;2023-02-19T03:27:57;99581.69;;;9.93;62.85
7668;BME280;3876;42.204;24.686;2023-02-19T03:30:28;99583.31;;;9.97;63.42
7668;BME280;3876;42.204;24.686;2023-02-19T03:33:00;99577.34;;;9.96;63.60
7668;BME280;3876;42.204;24.686;2023-02-19T03:35:35;99594.47;;;9.94;63.51
7668;BME280;3876;42.204;24.686;2023-02-19T03:38:08;99608.84;;;10.00;63.52
7668;BME280;3876;42.204;24.686;2023-02-19T03:40:44;99610.47;;;10.04;63.21
7668;BME280;3876;42.204;24.686;2023-02-19T03:43:19;99603.50;;;10.09;63.10
7668;BME280;3876;42.204;24.686;2023-02-19T03:45:52;99600.06;;;10.10;62.97
7668;BME280;3876;42.204;24.686;2023-02-19T03:48:28;99606.88;;;10.11;62.60
7668;BME280;3876;42.204;24.686;2023-02-19T03:51:03;99606.00;;;10.14;62.37
7668;BME280;3876;42.204;24.686;2023-02-19T03:53:36;99606.75;;;10.17;62.30
7668;BME280;3876;42.204;24.686;2023-02-19T03:56:10;99589.91;;;10.07;62.60
7668;BME280;3876;42.204;24.686;2023-02-19T03:58:48;99593.09;;;10.17;62.41
7668;BME280;3876;42.204;24.686;2023-02-19T04:01:20;99584.56;;;10.16;62.33
7668;BME280;3876;42.204;24.686;2023-02-19T04:03:55;99587.63;;;10.30;62.20
7668;BME280;3876;42.204;24.686;2023-02-19T04:06:25;99587.38;;;10.39;61.26
7668;BME280;3876;42.204;24.686;2023-02-19T04:08:55;99570.50;;;10.31;60.80
7668;BME280;3876;42.204;24.686;2023-02-19T04:11:24;99579.63;;;10.41;60.86
7668;BME280;3876;42.204;24.686;2023-02-19T04:13:56;99582.09;;;10.45;60.58
7668;BME280;3876;42.204;24.686;2023-02-19T04:16:26;99587.28;;;10.42;60.81
7668;BME280;3876;42.204;24.686;2023-02-19T04:18:58;99584.00;;;10.37;61.28
7668;BME280;3876;42.204;24.686;2023-02-19T04:21:31;99588.53;;;10.28;60.90
7668;BME280;3876;42.204;24.686;2023-02-19T04:24:02;99598.78;;;10.28;61.60
7668;BME280;3876;42.204;24.686;2023-02-19T04:26:32;99596.34;;;10.23;61.43
7668;BME280;3876;42.204;24.686;2023-02-19T04:28:59;99591.31;;;10.20;61.77
7668;BME280;3876;42.204;24.686;2023-02-19T04:31:27;99595.44;;;10.24;61.66
7668;BME280;3876;42.204;24.686;2023-02-19T04:33:56;99606.44;;;10.29;61.76
7668;BME280;3876;42.204;24.686;2023-02-19T04:36:23;99591.84;;;10.31;61.19
7668;BME280;3876;42.204;24.686;2023-02-19T04:38:50;99598.66;;;10.32;61.10
7668;BME280;3876;42.204;24.686;2023-02-19T04:41:17;99602.06;;;10.33;61.47
7668;BME280;3876;42.204;24.686;2023-02-19T04:43:44;99610.72;;;10.29;61.58
7668;BME280;3876;42.204;24.686;2023-02-19T04:46:10;99616.69;;;10.29;61.27
7668;BME280;3876;42.204;24.686;2023-02-19T04:48:37;99630.28;;;10.31;61.46
7668;BME280;3876;42.204;24.686;2023-02-19T04:51:06;99637.72;;;10.40;60.96
7668;BME280;3876;42.204;24.686;2023-02-19T04:53:33;99618.13;;;10.39;60.60
7668;BME280;3876;42.204;24.686;2023-02-19T04:56:05;99645.97;;;10.53;60.14
7668;BME280;3876;42.204;24.686;2023-02-19T04:58:32;99650.25;;;10.52;60.15
7668;BME280;3876;42.204;24.686;2023-02-19T05:00:59;99652.75;;;10.54;60.15
7668;BME280;3876;42.204;24.686;2023-02-19T05:03:25;99657.13;;;10.50;59.98
7668;BME280;3876;42.204;24.686;2023-02-19T05:05:52;99665.56;;;10.56;59.91
7668;BME280;3876;42.204;24.686;2023-02-19T05:08:20;99647.78;;;10.48;60.16
7668;BME280;3876;42.204;24.686;2023-02-19T05:10:47;99645.13;;;10.52;59.99
7668;BME280;3876;42.204;24.686;2023-02-19T05:13:15;99662.16;;;10.53;59.82
7668;BME280;3876;42.204;24.686;2023-02-19T05:15:53;99674.28;;;10.48;60.50
7668;BME280;3876;42.204;24.686;2023-02-19T05:18:20;99680.34;;;10.44;60.40
7668;BME280;3876;42.204;24.686;2023-02-19T05:20:46;99686.28;;;10.46;60.19
7668;BME280;3876;42.204;24.686;2023-02-19T05:23:13;99684.50;;;10.50;60.31
7668;BME280;3876;42.204;24.686;2023-02-19T05:25:41;99687.00;;;10.51;59.71
7668;BME280;3876;42.204;24.686;2023-02-19T05:28:08;99683.53;;;10.54;60.20
7668;BME280;3876;42.204;24.686;2023-02-19T05:30:44;99695.56;;;10.50;60.37
7668;BME280;3876;42.204;24.686;2023-02-19T05:33:12;99696.56;;;10.45;60.55
7668;BME280;3876;42.204;24.686;2023-02-19T05:35:40;99699.38;;;10.34;60.88
7668;BME280;3876;42.204;24.686;2023-02-19T05:38:07;99707.31;;;10.25;61.69
7668;BME280;3876;42.204;24.686;2023-02-19T05:40:34;99709.44;;;10.05;62.88
7668;BME280;3876;42.204;24.686;2023-02-19T05:43:03;99712.22;;;9.97;63.59
7668;BME280;3876;42.204;24.686;2023-02-19T05:45:30;99711.44;;;9.94;64.23
7668;BME280;3876;42.204;24.686;2023-02-19T05:47:57;99695.38;;;9.87;64.88
7668;BME280;3876;42.204;24.686;2023-02-19T05:50:24;99704.53;;;9.96;64.87
7668;BME280;3876;42.204;24.686;2023-02-19T05:52:51;99694.53;;;9.87;65.19
7668;BME280;3876;42.204;24.686;2023-02-19T05:55:18;99711.16;;;10.06;64.81
7668;BME280;3876;42.204;24.686;2023-02-19T05:57:46;99717.78;;;10.16;64.55
7668;BME280;3876;42.204;24.686;2023-02-19T06:00:16;99721.88;;;10.23;63.95
7668;BME280;3876;42.204;24.686;2023-02-19T06:02:45;99721.88;;;10.23;64.62
7668;BME280;3876;42.204;24.686;2023-02-19T06:05:12;99719.25;;;10.26;64.71
7668;BME280;3876;42.204;24.686;2023-02-19T06:07:39;99722.50;;;10.33;64.16
7668;BME280;3876;42.204;24.686;2023-02-19T06:10:07;99731.69;;;10.41;64.21
7668;BME280;3876;42.204;24.686;2023-02-19T06:12:34;99744.34;;;10.47;64.03
7668;BME280;3876;42.204;24.686;2023-02-19T06:15:02;99733.19;;;10.50;63.64
7668;BME280;3876;42.204;24.686;2023-02-19T06:17:30;99750.41;;;10.79;62.04
7668;BME280;3876;42.204;24.686;2023-02-19T06:19:57;99750.72;;;10.99;61.87
7668;BME280;3876;42.204;24.686;2023-02-19T06:22:24;99753.69;;;11.16;60.73
7668;BME280;3876;42.204;24.686;2023-02-19T06:24:50;99752.41;;;11.32;60.32
7668;BME280;3876;42.204;24.686;2023-02-19T06:27:17;99745.16;;;11.46;59.51
7668;BME280;3876;42.204;24.686;2023-02-19T06:29:44;99755.78;;;11.64;58.97
7668;BME280;3876;42.204;24.686;2023-02-19T06:32:11;99753.66;;;11.79;57.74
7668;BME280;3876;42.204;24.686;2023-02-19T06:34:39;99766.25;;;11.87;58.44
7668;BME280;3876;42.204;24.686;2023-02-19T06:37:06;99766.72;;;11.99;58.25
7668;BME280;3876;42.204;24.686;2023-02-19T06:39:33;99769.06;;;12.07;57.75
7668;BME280;3876;42.204;24.686;2023-02-19T06:41:59;99772.97;;;12.20;57.55
7668;BME280;3876;42.204;24.686;2023-02-19T06:44:26;99774.41;;;12.29;57.51
7668;BME280;3876;42.204;24.686;2023-02-19T06:46:54;99771.38;;;12.44;56.73
7668;BME280;3876;42.204;24.686;2023-02-19T06:49:21;99775.91;;;12.62;56.33
7668;BME280;3876;42.204;24.686;2023-02-19T06:51:49;99773.78;;;12.75;56.09
7668;BME280;3876;42.204;24.686;2023-02-19T06:54:16;99770.13;;;12.82;55.60
7668;BME280;3876;42.204;24.686;2023-02-19T06:56:43;99771.38;;;12.95;54.74
7668;BME280;3876;42.204;24.686;2023-02-19T06:59:11;99756.78;;;12.95;54.34
7668;BME280;3876;42.204;24.686;2023-02-19T07:01:39;99772.56;;;13.11;54.19
7668;BME280;3876;42.204;24.686;2023-02-19T07:04:06;99761.31;;;13.13;54.52
7668;BME280;3876;42.204;24.686;2023-02-19T07:06:34;99771.19;;;13.26;53.65
7668;BME280;3876;42.204;24.686;2023-02-19T07:09:03;99781.84;;;13.40;54.03
7668;BME280;3876;42.204;24.686;2023-02-19T07:11:32;99778.97;;;13.47;53.91
7668;BME280;3876;42.204;24.686;2023-02-19T07:14:01;99775.47;;;13.50;54.36
7668;BME280;3876;42.204;24.686;2023-02-19T07:16:28;99773.41;;;13.59;54.79
7668;BME280;3876;42.204;24.686;2023-02-19T07:18:56;99771.34;;;13.69;54.05
7668;BME280;3876;42.204;24.686;2023-02-19T07:21:25;99772.56;;;13.82;53.77
7668;BME280;3876;42.204;24.686;2023-02-19T07:23:52;99775.31;;;13.99;53.67
7668;BME280;3876;42.204;24.686;2023-02-19T07:26:21;99777.25;;;14.16;51.42
7668;BME280;3876;42.204;24.686;2023-02-19T07:28:49;99760.16;;;14.37;50.99
7668;BME280;3876;42.204;24.686;2023-02-19T07:31:18;99765.84;;;14.45;50.39
7668;BME280;3876;42.204;24.686;2023-02-19T07:33:46;99756.44;;;14.44;49.88
7668;BME280;3876;42.204;24.686;2023-02-19T07:36:13;99756.91;;;14.53;49.50
7668;BME280;3876;42.204;24.686;2023-02-19T07:38:41;99756.13;;;14.71;49.08
7668;BME280;3876;42.204;24.686;2023-02-19T07:41:08;99765.00;;;14.86;49.32
7668;BME280;3876;42.204;24.686;2023-02-19T07:43:37;99757.63;;;14.97;49.20
7668;BME280;3876;42.204;24.686;2023-02-19T07:46:04;99756.25;;;15.09;49.06
7668;BME280;3876;42.204;24.686;2023-02-19T07:48:33;99757.63;;;15.17;48.76
7668;BME280;3876;42.204;24.686;2023-02-19T07:51:00;99756.47;;;15.24;48.83
7668;BME280;3876;42.204;24.686;2023-02-19T07:53:28;99751.78;;;15.33;48.23
7668;BME280;3876;42.204;24.686;2023-02-19T07:55:58;99764.16;;;15.45;48.35
7668;BME280;3876;42.204;24.686;2023-02-19T07:58:25;99762.75;;;15.58;47.60
7668;BME280;3876;42.204;24.686;2023-02-19T08:00:53;99764.66;;;15.73;47.94
7668;BME280;3876;42.204;24.686;2023-02-19T08:03:20;99755.28;;;15.89;47.84
7668;BME280;3876;42.204;24.686;2023-02-19T08:05:45;99763.09;;;16.06;47.35
7668;BME280;3876;42.204;24.686;2023-02-19T08:08:14;99762.28;;;16.23;46.45
7668;BME280;3876;42.204;24.686;2023-02-19T08:10:41;99744.19;;;16.23;46.28
7668;BME280;3876;42.204;24.686;2023-02-19T08:13:27;99751.47;;;16.51;46.40
7668;BME280;3876;42.204;24.686;2023-02-19T08:16:08;99749.47;;;16.57;46.12
7668;BME280;3876;42.204;24.686;2023-02-19T08:18:35;99748.81;;;16.87;45.31
7668;BME280;3876;42.204;24.686;2023-02-19T08:21:02;99706.38;;;16.73;46.20
7668;BME280;3876;42.204;24.686;2023-02-19T08:23:29;99721.91;;;17.06;46.03
7668;BME280;3876;42.204;24.686;2023-02-19T08:25:57;99737.88;;;17.31;44.56
7668;BME280;3876;42.204;24.686;2023-02-19T08:28:25;99726.03;;;17.43;44.08
7668;BME280;3876;42.204;24.686;2023-02-19T08:30:52;99738.13;;;17.75;43.85
7668;BME280;3876;42.204;24.686;2023-02-19T08:33:20;99744.34;;;17.89;43.69
7668;BME280;3876;42.204;24.686;2023-02-19T08:35:47;99736.66;;;18.03;44.12
7668;BME280;3876;42.204;24.686;2023-02-19T08:38:14;99750.34;;;18.20;42.96
7668;BME280;3876;42.204;24.686;2023-02-19T08:40:42;99743.63;;;18.32;43.30
